createdAt,value
2018-11-10T00:00:17.218Z,97.23
2018-11-10T00:02:47.336Z,74.93
2018-11-10T00:05:16.680Z,73.20
2018-11-10T00:07:45.697Z,85.27
2018-11-10T00:10:14.749Z,105.57
2018-11-10T00:12:43.765Z,97.03
2018-11-10T00:15:13.924Z,80.03
2018-11-10T00:17:42.985Z,106.90
2018-11-10T00:20:12.436Z,94.50
2018-11-10T00:22:42.966Z,91.53
2018-11-10T00:25:13.132Z,90.70
2018-11-10T00:27:43.102Z,98.23
2018-11-10T00:30:13.623Z,80.00
2018-11-10T00:32:43.624Z,83.73
2018-11-10T00:35:12.720Z,98.60
2018-11-10T00:37:41.853Z,78.40
2018-11-10T00:40:12.731Z,75.10
2018-11-10T00:42:42.234Z,76.93
2018-11-10T00:45:11.694Z,80.60
2018-11-10T00:47:40.667Z,83.60
2018-11-10T00:50:10.846Z,84.77
2018-11-10T00:52:40.097Z,70.03
2018-11-10T00:55:10.729Z,82.83
2018-11-10T00:57:41.964Z,77.23
2018-11-10T01:00:12.331Z,77.03
2018-11-10T01:02:43.421Z,72.20
2018-11-10T01:05:13.217Z,68.33
2018-11-10T01:07:47.827Z,73.67
2018-11-10T01:10:18.866Z,70.37
2018-11-10T01:12:47.963Z,63.70
2018-11-10T01:15:17.016Z,67.37
2018-11-10T01:17:47.018Z,57.17
2018-11-10T01:20:16.386Z,78.73
2018-11-10T01:22:46.168Z,75.70
2018-11-10T01:25:15.216Z,68.13
2018-11-10T01:27:44.659Z,62.33
2018-11-10T01:30:15.990Z,71.23
2018-11-10T01:32:46.206Z,76.40
2018-11-10T01:35:15.743Z,69.73
2018-11-10T01:37:44.792Z,65.67
2018-11-10T01:40:14.973Z,69.63
2018-11-10T01:42:45.149Z,68.60
2018-11-10T01:45:16.251Z,73.00
2018-11-10T01:47:46.606Z,64.17
2018-11-10T01:50:16.084Z,62.47
2018-11-10T01:52:45.386Z,56.47
2018-11-10T01:55:14.423Z,75.77
2018-11-10T01:57:43.866Z,76.90
2018-11-10T02:00:16.113Z,74.50
2018-11-10T02:02:45.689Z,75.53
2018-11-10T02:05:15.535Z,73.33
2018-11-10T02:07:44.553Z,60.43
2018-11-10T02:10:13.799Z,64.50
2018-11-10T02:12:43.019Z,64.73
2018-11-10T02:15:14.260Z,64.83
2018-11-10T02:17:43.206Z,63.97
2018-11-10T02:20:14.278Z,66.00
2018-11-10T02:22:43.523Z,69.77
2018-11-10T02:25:12.893Z,58.30
2018-11-10T02:27:41.901Z,57.60
2018-11-10T02:30:11.675Z,56.63
2018-11-10T02:32:40.648Z,61.53
2018-11-10T02:35:10.252Z,53.70
2018-11-10T02:37:40.055Z,59.17
2018-11-10T02:40:10.971Z,56.90
2018-11-10T02:42:40.020Z,59.27
2018-11-10T02:45:10.505Z,54.57
2018-11-10T02:47:39.660Z,52.57
2018-11-10T02:50:08.807Z,47.73
2018-11-10T02:52:37.876Z,51.50
2018-11-10T02:55:07.871Z,53.03
2018-11-10T02:57:37.937Z,52.07
2018-11-10T03:00:08.036Z,51.57
2018-11-10T03:02:37.607Z,49.13
2018-11-10T03:05:07.069Z,52.10
2018-11-10T03:07:36.485Z,47.03
2018-11-10T03:10:06.526Z,46.10
2018-11-10T03:12:35.782Z,47.13
2018-11-10T03:15:05.649Z,43.93
2018-11-10T03:17:34.768Z,46.40
2018-11-10T03:20:04.564Z,47.87
2018-11-10T03:22:33.627Z,46.10
2018-11-10T03:25:02.675Z,46.70
2018-11-10T03:27:31.615Z,47.23
2018-11-10T03:30:01.116Z,42.50
2018-11-10T03:32:30.127Z,46.80
2018-11-10T03:34:59.732Z,44.77
2018-11-10T03:37:28.722Z,45.73
2018-11-10T03:39:57.694Z,39.77
2018-11-10T03:42:27.199Z,46.20
2018-11-10T03:44:56.198Z,45.17
2018-11-10T03:47:25.531Z,40.23
2018-11-10T03:49:54.493Z,39.13
2018-11-10T03:52:23.595Z,45.47
2018-11-10T03:54:53.509Z,41.87
2018-11-10T03:57:22.624Z,39.10
2018-11-10T03:59:52.073Z,38.10
2018-11-10T04:02:21.126Z,37.60
2018-11-10T04:04:50.225Z,38.63
2018-11-10T04:07:19.364Z,35.10
2018-11-10T04:09:48.441Z,41.10
2018-11-10T04:12:17.455Z,36.47
2018-11-10T04:14:46.556Z,36.07
2018-11-10T04:17:17.089Z,35.97
2018-11-10T04:19:46.134Z,35.27
2018-11-10T04:22:19.700Z,36.13
2018-11-10T04:24:49.273Z,37.73
2018-11-10T04:27:18.352Z,36.27
2018-11-10T04:29:48.405Z,31.37
2018-11-10T04:32:17.447Z,38.13
2018-11-10T04:34:46.420Z,34.93
2018-11-10T04:37:15.890Z,29.70
2018-11-10T04:39:45.613Z,38.50
2018-11-10T04:42:14.871Z,34.37
2018-11-10T04:44:43.991Z,38.47
2018-11-10T04:47:13.039Z,34.60
2018-11-10T04:49:42.168Z,36.63
2018-11-10T04:52:11.071Z,33.07
2018-11-10T04:54:40.186Z,36.73
2018-11-10T04:57:09.319Z,36.63
2018-11-10T04:59:38.555Z,33.80
2018-11-10T05:02:08.524Z,32.60
2018-11-10T05:04:37.582Z,36.23
2018-11-10T05:07:06.740Z,35.93
2018-11-10T05:09:36.292Z,32.53
2018-11-10T05:12:05.914Z,36.77
2018-11-10T05:14:34.928Z,40.93
2018-11-10T05:17:04.019Z,40.03
2018-11-10T05:19:33.762Z,42.83
2018-11-10T05:22:02.943Z,43.30
2018-11-10T05:24:31.971Z,45.47
2018-11-10T05:27:01.234Z,49.67
2018-11-10T05:29:30.306Z,46.40
2018-11-10T05:31:59.397Z,51.70
2018-11-10T05:34:28.674Z,54.43
2018-11-10T05:36:57.701Z,48.77
2018-11-10T05:39:26.812Z,50.20
2018-11-10T05:41:55.897Z,49.87
2018-11-10T05:44:24.948Z,54.80
2018-11-10T05:46:54.597Z,48.93
2018-11-10T05:49:23.693Z,50.00
2018-11-10T05:51:52.880Z,53.87
2018-11-10T05:54:21.842Z,53.97
2018-11-10T05:56:50.967Z,56.73
2018-11-10T05:59:19.954Z,50.97
2018-11-10T06:01:49.040Z,51.03
2018-11-10T06:04:18.729Z,47.67
2018-11-10T06:06:47.839Z,54.03
2018-11-10T06:09:17.269Z,52.00
2018-11-10T06:11:46.223Z,55.93
2018-11-10T06:14:15.273Z,52.90
2018-11-10T06:16:44.518Z,53.10
2018-11-10T06:19:13.733Z,53.43
2018-11-10T06:21:43.270Z,55.07
2018-11-10T06:24:12.424Z,56.73
2018-11-10T06:26:41.758Z,55.53
2018-11-10T06:29:10.847Z,57.33
2018-11-10T06:31:39.938Z,52.10
2018-11-10T06:34:08.993Z,64.07
2018-11-10T06:36:38.209Z,63.60
2018-11-10T06:39:10.017Z,67.60
2018-11-10T06:41:39.818Z,67.87
2018-11-10T06:44:09.736Z,69.87
2018-11-10T06:46:38.875Z,79.07
2018-11-10T06:49:08.847Z,77.97
2018-11-10T06:51:38.093Z,84.60
2018-11-10T06:54:07.234Z,88.67
2018-11-10T06:56:36.965Z,84.67
2018-11-10T06:59:06.521Z,87.87
2018-11-10T07:01:37.067Z,93.67
2018-11-10T07:04:06.083Z,88.23
2018-11-10T07:06:35.696Z,83.10
2018-11-10T07:09:08.025Z,81.37
2018-11-10T07:11:37.153Z,86.60
2018-11-10T07:14:06.575Z,78.63
2018-11-10T07:16:36.420Z,80.47
2018-11-10T07:19:05.850Z,78.80
2018-11-10T07:21:35.705Z,80.60
2018-11-10T07:24:05.134Z,78.80
2018-11-10T07:26:34.269Z,85.33
2018-11-10T07:29:03.655Z,82.33
2018-11-10T07:31:32.771Z,74.37
2018-11-10T07:34:02.071Z,81.93
2018-11-10T07:36:32.132Z,73.43
2018-11-10T07:39:01.892Z,82.83
2018-11-10T07:41:31.181Z,79.57
2018-11-10T07:44:00.326Z,72.10
2018-11-10T07:46:31.126Z,63.73
2018-11-10T07:49:01.985Z,82.03
2018-11-10T07:51:32.220Z,77.67
2018-11-10T07:54:01.905Z,76.13
2018-11-10T07:56:31.421Z,61.70
2018-11-10T07:59:01.354Z,76.27
2018-11-10T08:01:30.486Z,66.80
2018-11-10T08:04:00.138Z,66.93
2018-11-10T08:06:29.212Z,66.33
2018-11-10T08:08:58.275Z,66.13
2018-11-10T08:11:27.571Z,58.47
2018-11-10T08:13:56.584Z,60.20
2018-11-10T08:16:26.348Z,61.87
2018-11-10T08:18:55.374Z,63.27
2018-11-10T08:21:25.701Z,64.60
2018-11-10T08:23:54.638Z,56.27
2018-11-10T08:26:23.662Z,58.93
2018-11-10T08:28:54.581Z,61.53
2018-11-10T08:31:23.708Z,62.37
2018-11-10T08:33:53.116Z,66.50
2018-11-10T08:36:22.257Z,64.57
2018-11-10T08:38:51.512Z,64.97
2018-11-10T08:41:20.613Z,60.83
2018-11-10T08:43:49.729Z,63.27
2018-11-10T08:46:19.425Z,59.13
2018-11-10T08:48:48.474Z,66.67
2018-11-10T08:51:17.495Z,67.23
2018-11-10T08:53:46.543Z,68.27
2018-11-10T08:56:15.525Z,57.63
2018-11-10T08:58:45.348Z,64.77
2018-11-10T09:01:14.507Z,66.53
2018-11-10T09:03:44.564Z,61.57
2018-11-10T09:06:13.783Z,64.80
2018-11-10T09:08:42.751Z,60.47
2018-11-10T09:11:11.810Z,58.47
2018-11-10T09:13:42.076Z,59.00
2018-11-10T09:16:11.381Z,58.63
2018-11-10T09:18:40.528Z,61.93
2018-11-10T09:21:09.592Z,56.73
2018-11-10T09:23:38.608Z,58.20
2018-11-10T09:26:07.597Z,62.30
2018-11-10T09:28:36.769Z,54.50
2018-11-10T09:31:06.330Z,55.10
2018-11-10T09:33:35.220Z,58.23
2018-11-10T09:36:04.367Z,53.83
2018-11-10T09:38:33.475Z,55.30
2018-11-10T09:41:02.727Z,51.37
2018-11-10T09:43:31.780Z,50.93
2018-11-10T09:46:00.978Z,48.50
2018-11-10T09:48:30.746Z,50.63
2018-11-10T09:50:59.998Z,47.83
2018-11-10T09:53:29.042Z,50.33
2018-11-10T09:55:58.055Z,52.73
2018-11-10T09:58:27.178Z,45.43
2018-11-10T10:00:56.474Z,52.40
2018-11-10T10:03:25.677Z,51.67
2018-11-10T10:05:55.057Z,44.57
2018-11-10T10:08:24.103Z,45.60
2018-11-10T10:10:53.237Z,48.37
2018-11-10T10:13:22.413Z,53.07
2018-11-10T10:15:51.516Z,45.10
2018-11-10T10:18:20.499Z,47.00
2018-11-10T10:20:49.491Z,47.63
2018-11-10T10:23:18.942Z,49.43
2018-11-10T10:25:48.075Z,40.00
2018-11-10T10:28:17.060Z,43.80
2018-11-10T10:30:45.954Z,43.40
2018-11-10T10:33:15.032Z,41.03
2018-11-10T10:35:44.008Z,40.93
2018-11-10T10:38:13.009Z,39.63
2018-11-10T10:40:42.102Z,43.67
2018-11-10T10:43:11.117Z,39.17
2018-11-10T10:45:40.627Z,39.53
2018-11-10T10:48:09.656Z,40.63
2018-11-10T10:50:39.889Z,37.80
2018-11-10T10:53:08.867Z,37.27
2018-11-10T10:55:38.029Z,37.63
2018-11-10T10:58:07.037Z,37.27
2018-11-10T11:00:43.160Z,37.07
2018-11-10T11:03:18.058Z,37.97
2018-11-10T11:05:52.991Z,36.80
2018-11-10T11:08:21.986Z,35.47
2018-11-10T11:10:51.958Z,33.23
2018-11-10T11:13:20.994Z,32.97
2018-11-10T11:15:50.137Z,34.30
2018-11-10T11:18:19.075Z,32.93
2018-11-10T11:20:48.205Z,36.03
2018-11-10T11:23:18.871Z,32.07
2018-11-10T11:25:47.960Z,35.87
2018-11-10T11:28:17.000Z,29.90
2018-11-10T11:30:45.986Z,34.87
2018-11-10T11:33:15.816Z,32.30
2018-11-10T11:35:44.827Z,31.20
2018-11-10T11:38:13.869Z,31.03
2018-11-10T11:40:43.810Z,30.50
2018-11-10T11:43:13.010Z,32.37
2018-11-10T11:45:42.044Z,29.67
2018-11-10T11:48:11.065Z,30.10
2018-11-10T11:50:40.171Z,29.97
2018-11-10T11:53:09.179Z,29.37
2018-11-10T11:55:38.217Z,30.60
2018-11-10T11:58:08.541Z,31.63
2018-11-10T12:00:37.564Z,30.93
2018-11-10T12:03:06.652Z,31.07
2018-11-10T12:05:35.607Z,32.20
2018-11-10T12:08:04.661Z,32.07
2018-11-10T12:10:34.350Z,29.77
2018-11-10T12:13:03.360Z,30.70
2018-11-10T12:15:32.504Z,29.03
2018-11-10T12:18:02.476Z,28.27
2018-11-10T12:20:31.453Z,28.17
2018-11-10T12:23:00.914Z,27.40
2018-11-10T12:25:30.829Z,27.87
2018-11-10T12:27:59.965Z,29.10
2018-11-10T12:30:29.095Z,29.80
2018-11-10T12:32:58.132Z,28.70
2018-11-10T12:35:27.729Z,28.70
2018-11-10T12:37:56.920Z,27.90
2018-11-10T12:40:26.092Z,28.33
2018-11-10T12:42:55.301Z,26.57
2018-11-10T12:45:24.667Z,28.03
2018-11-10T12:47:55.597Z,28.00
2018-11-10T12:50:24.682Z,27.67
2018-11-10T12:52:56.045Z,26.17
2018-11-10T12:55:25.404Z,24.60
2018-11-10T12:57:54.806Z,24.03
2018-11-10T13:00:24.530Z,26.67
2018-11-10T13:02:53.578Z,24.73
2018-11-10T13:05:22.655Z,25.07
2018-11-10T13:07:51.676Z,23.20
2018-11-10T13:10:20.790Z,26.47
2018-11-10T13:12:49.887Z,26.30
2018-11-10T13:15:19.050Z,26.13
2018-11-10T13:17:48.313Z,25.27
2018-11-10T13:20:17.333Z,22.87
2018-11-10T13:22:46.310Z,21.97
2018-11-10T13:25:15.494Z,21.90
2018-11-10T13:27:45.129Z,22.43
2018-11-10T13:30:15.228Z,24.03
2018-11-10T13:32:44.597Z,22.07
2018-11-10T13:35:13.626Z,22.93
2018-11-10T13:37:42.721Z,20.27
2018-11-10T13:40:11.790Z,24.37
2018-11-10T13:42:40.953Z,22.10
2018-11-10T13:45:13.297Z,20.93
2018-11-10T13:47:42.331Z,20.43
2018-11-10T13:50:12.053Z,20.83
2018-11-10T13:52:42.142Z,19.50
2018-11-10T13:55:11.451Z,17.90
2018-11-10T13:57:40.806Z,18.33
2018-11-10T14:00:13.767Z,17.20
2018-11-10T14:02:43.112Z,18.90
2018-11-10T14:05:13.312Z,18.20
2018-11-10T14:07:42.458Z,18.37
2018-11-10T14:10:13.029Z,18.27
2018-11-10T14:12:42.962Z,17.50
2018-11-10T14:15:11.945Z,17.53
2018-11-10T14:17:41.943Z,19.27
2018-11-10T14:20:14.705Z,15.77
2018-11-10T14:22:44.851Z,17.93
2018-11-10T14:25:14.870Z,16.47
2018-11-10T14:27:44.562Z,16.00
2018-11-10T14:30:14.924Z,15.93
2018-11-10T14:32:44.832Z,15.50
2018-11-10T14:35:14.293Z,16.77
2018-11-10T14:37:43.386Z,16.97
2018-11-10T14:40:13.937Z,17.47
2018-11-10T14:42:43.437Z,15.90
2018-11-10T14:45:13.778Z,14.70
2018-11-10T14:47:44.509Z,14.67
2018-11-10T14:50:14.494Z,19.07
2018-11-10T14:52:47.248Z,17.40
2018-11-10T14:55:16.445Z,18.97
2018-11-10T14:57:45.545Z,17.80
2018-11-10T15:00:18.909Z,19.00
2018-11-10T15:02:48.404Z,18.20
2018-11-10T15:05:17.418Z,15.70
2018-11-10T15:07:46.519Z,18.53
2018-11-10T15:10:16.660Z,20.60
2018-11-10T15:12:46.555Z,19.47
2018-11-10T15:15:16.526Z,18.13
2018-11-10T15:17:46.425Z,18.77
2018-11-10T15:20:16.713Z,20.50
2018-11-10T15:22:45.956Z,18.40
2018-11-10T15:25:16.416Z,18.90
2018-11-10T15:27:45.418Z,20.10
2018-11-10T15:30:15.746Z,20.67
2018-11-10T15:32:45.557Z,20.20
2018-11-10T15:35:17.906Z,22.67
2018-11-10T15:37:48.273Z,21.83
2018-11-10T15:40:17.946Z,25.77
2018-11-10T15:42:47.034Z,23.37
2018-11-10T15:45:17.058Z,22.80
2018-11-10T15:47:46.247Z,22.00
2018-11-10T15:50:16.305Z,20.90
2018-11-10T15:52:45.310Z,19.10
2018-11-10T15:55:15.823Z,20.10
2018-11-10T15:57:44.831Z,23.57
2018-11-10T16:00:15.358Z,21.23
2018-11-10T16:02:44.524Z,21.87
2018-11-10T16:05:14.116Z,19.23
2018-11-10T16:07:43.529Z,19.50
2018-11-10T16:10:12.667Z,18.87
2018-11-10T16:12:41.876Z,17.23
2018-11-10T16:15:13.081Z,16.53
2018-11-10T16:17:42.799Z,15.47
2018-11-10T16:20:15.718Z,14.27
2018-11-10T16:22:46.657Z,15.47
2018-11-10T16:25:15.979Z,14.40
2018-11-10T16:27:45.639Z,15.17
2018-11-10T16:30:15.767Z,15.07
2018-11-10T16:32:45.780Z,15.10
2018-11-10T16:35:14.734Z,13.17
2018-11-10T16:37:43.845Z,13.93
2018-11-10T16:40:15.038Z,14.53
2018-11-10T16:42:45.017Z,14.43
2018-11-10T16:45:14.720Z,13.83
2018-11-10T16:47:44.286Z,13.77
2018-11-10T16:50:13.282Z,14.47
2018-11-10T16:52:43.800Z,13.53
2018-11-10T16:55:12.769Z,15.77
2018-11-10T16:57:41.829Z,15.43
2018-11-10T17:00:14.020Z,15.07
2018-11-10T17:02:43.079Z,13.47
2018-11-10T17:05:12.040Z,21.70
2018-11-10T17:07:41.184Z,13.37
2018-11-10T17:10:12.782Z,14.47
2018-11-10T17:12:42.732Z,13.80
2018-11-10T17:15:11.996Z,12.60
2018-11-10T17:17:41.026Z,13.10
2018-11-10T17:20:12.634Z,13.17
2018-11-10T17:22:41.764Z,14.30
2018-11-10T17:25:11.738Z,15.67
2018-11-10T17:27:41.487Z,14.20
2018-11-10T17:30:13.254Z,14.53
2018-11-10T17:32:45.700Z,12.30
2018-11-10T17:35:14.919Z,14.70
2018-11-10T17:37:44.083Z,13.63
2018-11-10T17:40:14.057Z,13.77
2018-11-10T17:42:42.943Z,11.60
2018-11-10T17:45:13.786Z,11.83
2018-11-10T17:47:43.007Z,12.27
2018-11-10T17:50:13.340Z,15.93
2018-11-10T17:52:42.377Z,12.70
2018-11-10T17:55:12.713Z,12.10
2018-11-10T17:57:45.338Z,11.13
2018-11-10T18:00:14.459Z,10.43
2018-11-10T18:02:43.448Z,10.20
2018-11-10T18:05:14.004Z,10.73
2018-11-10T18:07:42.985Z,10.87
2018-11-10T18:10:13.778Z,11.73
2018-11-10T18:12:44.145Z,10.10
2018-11-10T18:15:13.468Z,9.97
2018-11-10T18:17:43.542Z,8.93
2018-11-10T18:20:15.206Z,9.90
2018-11-10T18:22:45.295Z,12.37
2018-11-10T18:25:14.299Z,10.33
2018-11-10T18:27:43.282Z,9.13
2018-11-10T18:30:13.516Z,8.97
2018-11-10T18:32:42.771Z,12.87
2018-11-10T18:35:12.246Z,9.97
2018-11-10T18:37:41.701Z,10.70
2018-11-10T18:40:10.785Z,8.50
2018-11-10T18:42:39.816Z,9.27
2018-11-10T18:45:10.227Z,10.87
2018-11-10T18:47:39.858Z,9.57
2018-11-10T18:50:12.682Z,8.83
2018-11-10T18:52:42.035Z,8.87
2018-11-10T18:55:12.430Z,8.73
2018-11-10T18:57:42.405Z,10.33
2018-11-10T19:00:13.409Z,9.03
2018-11-10T19:02:42.373Z,10.43
2018-11-10T19:05:12.758Z,9.23
2018-11-10T19:07:41.975Z,8.43
2018-11-10T19:10:12.580Z,8.57
2018-11-10T19:12:42.070Z,9.43
2018-11-10T19:15:14.491Z,8.77
2018-11-10T19:17:43.545Z,9.87
2018-11-10T19:20:14.395Z,9.37
2018-11-10T19:22:43.490Z,8.80
2018-11-10T19:25:13.294Z,8.90
2018-11-10T19:27:42.274Z,11.07
2018-11-10T19:30:14.040Z,10.53
2018-11-10T19:32:43.302Z,10.80
2018-11-10T19:35:13.017Z,9.83
2018-11-10T19:37:42.244Z,11.13
2018-11-10T19:40:11.921Z,10.93
2018-11-10T19:42:41.905Z,12.30
2018-11-10T19:45:11.456Z,9.37
2018-11-10T19:47:41.623Z,10.30
2018-11-10T19:50:11.847Z,10.73
2018-11-10T19:52:40.774Z,10.93
2018-11-10T19:55:12.384Z,13.80
2018-11-10T19:57:41.792Z,10.83
2018-11-10T20:00:16.517Z,10.93
2018-11-10T20:02:45.769Z,11.03
2018-11-10T20:05:15.393Z,10.57
2018-11-10T20:07:44.465Z,10.60
2018-11-10T20:10:13.827Z,10.50
2018-11-10T20:12:43.792Z,12.73
2018-11-10T20:15:13.906Z,11.60
2018-11-10T20:17:48.716Z,11.47
2018-11-10T20:20:19.910Z,11.17
2018-11-10T20:22:48.861Z,10.70
2018-11-10T20:25:19.650Z,9.67
2018-11-10T20:27:48.768Z,12.03
2018-11-10T20:30:19.438Z,10.53
2018-11-10T20:32:48.630Z,11.93
2018-11-10T20:35:17.686Z,12.73
2018-11-10T20:37:47.245Z,14.00
2018-11-10T20:40:39.759Z,16.50
2018-11-10T20:43:10.078Z,14.93
2018-11-10T20:45:40.527Z,18.23
2018-11-10T20:48:09.593Z,14.00
2018-11-10T20:50:39.199Z,19.90
2018-11-10T20:53:08.251Z,18.67
2018-11-10T20:55:37.243Z,17.73
2018-11-10T20:58:08.342Z,18.13
2018-11-10T21:00:37.356Z,18.23
2018-11-10T21:03:06.360Z,18.80
2018-11-10T21:05:35.425Z,17.87
2018-11-10T21:08:04.557Z,15.93
2018-11-10T21:10:40.115Z,16.17
2018-11-10T21:13:21.562Z,20.80
2018-11-10T21:15:59.596Z,19.07
2018-11-10T21:18:40.737Z,21.50
2018-11-10T21:21:15.872Z,20.40
2018-11-10T21:23:59.046Z,20.43
2018-11-10T21:26:41.534Z,20.57
2018-11-10T21:35:38.566Z,21.27
2018-11-10T21:38:12.318Z,19.13
2018-11-10T21:40:41.439Z,19.27
2018-11-10T21:43:10.748Z,17.37
2018-11-10T21:45:39.944Z,18.70
2018-11-10T21:48:09.655Z,19.63
2018-11-10T21:50:39.992Z,18.63
2018-11-10T21:53:09.024Z,16.43
2018-11-10T21:55:38.185Z,21.40
2018-11-10T21:58:07.317Z,18.93
2018-11-10T22:00:36.312Z,16.70
2018-11-10T22:03:05.447Z,16.50
2018-11-10T22:05:34.443Z,17.90
2018-11-10T22:08:05.118Z,19.17
2018-11-10T22:10:34.113Z,17.87
2018-11-10T22:13:03.247Z,15.57
2018-11-10T22:15:32.283Z,17.30
2018-11-10T22:18:01.380Z,14.83
2018-11-10T22:20:30.499Z,14.63
2018-11-10T22:22:59.812Z,16.90
2018-11-10T22:25:28.814Z,15.47
2018-11-10T22:27:58.026Z,18.17
2018-11-10T22:30:27.008Z,15.77
2018-11-10T22:32:56.063Z,16.17
2018-11-10T22:35:27.484Z,15.03
2018-11-10T22:37:56.490Z,14.63
2018-11-10T22:40:25.603Z,15.50
2018-11-10T22:42:54.619Z,14.77
2018-11-10T22:45:23.764Z,14.97
2018-11-10T22:47:53.937Z,15.47
2018-11-10T22:50:24.204Z,16.33
2018-11-10T22:52:54.511Z,18.07
2018-11-10T22:55:23.605Z,15.57
2018-11-10T22:57:53.039Z,16.77
2018-11-10T23:00:24.455Z,15.07
2018-11-10T23:02:59.236Z,15.57
2018-11-10T23:05:28.347Z,14.97
2018-11-10T23:07:58.566Z,17.23
2018-11-10T23:10:27.582Z,16.47
2018-11-10T23:12:57.986Z,18.30
2018-11-10T23:15:27.287Z,18.43
2018-11-10T23:17:56.422Z,19.07
2018-11-10T23:20:25.539Z,16.43
2018-11-10T23:22:54.832Z,17.20
2018-11-10T23:25:24.662Z,18.53
2018-11-10T23:27:53.733Z,18.80
2018-11-10T23:30:24.199Z,17.13
2018-11-10T23:32:53.249Z,20.70
2018-11-10T23:35:23.341Z,18.93
2018-11-10T23:37:52.377Z,16.70
2018-11-10T23:40:21.927Z,21.17
2018-11-10T23:42:51.204Z,22.27
2018-11-10T23:45:20.357Z,21.17
2018-11-10T23:47:49.852Z,23.20
2018-11-10T23:50:19.002Z,23.57
2018-11-10T23:52:48.207Z,22.77
2018-11-10T23:55:17.566Z,21.60
2018-11-10T23:57:46.999Z,22.40
